^^
Grace C. Lehan Memorial Weather Station Historical Data
Daily Summary for April 13, 2021 Units:  Metric    English   Both
Daily Weekly Monthly Yearly
  High: Low: Average:
Temperature: 27.9 °C 19.1 °C 23.9 °C
Dew Point: 20.1 °C 13.7 °C 17.1 °C
Humidity: 85.3% 43.3% 67%
Wind Speed: 11.3km/h 0km/h 2.1km/h
Wind Gust: 27.4km/h - -
Wind- - WNW
Pressure: 1016.8 hPa 1011.1 hPa -
Precipitation: 0 mm    
 
 
Tabular Data for April 13, 2021
Time Temperature Dew Point Pressure Wind Wind Speed Wind Gust Humidity Rainfall Rate (Hourly) solar
00:09 23.2 °C 19.8 °C 1013.8 hPa Calm     81% 0 mm 0 W/m2
00:14 23.2 °C 19.8 °C 1013.4 hPa Calm     81% 0 mm 0 W/m2
00:19 23.2 °C 19.7 °C 1013.4 hPa Calm     81% 0 mm 0 W/m2
00:24 23.1 °C 19.7 °C 1013.4 hPa Calm   1.6 km/h 81% 0 mm 0 W/m2
00:29 23.1 °C 19.8 °C 1013.4 hPa Calm   1.6 km/h 81.6% 0 mm 0 W/m2
00:34 23.1 °C 19.8 °C 1013.4 hPa Calm   1.6 km/h 82% 0 mm 0 W/m2
00:39 23 °C 19.8 °C 1013.1 hPa Calm   3.2 km/h 82% 0 mm 0 W/m2
00:44 23 °C 19.8 °C 1013.1 hPa Calm   3.2 km/h 82% 0 mm 0 W/m2
00:49 23 °C 19.8 °C 1013.1 hPa Calm   3.2 km/h 82% 0 mm 0 W/m2
00:54 23 °C 19.8 °C 1013.1 hPa Calm   3.2 km/h 82% 0 mm 0 W/m2
00:59 23 °C 19.8 °C 1013.1 hPa Calm   3.2 km/h 82% 0 mm 0 W/m2
01:04 22.9 °C 19.7 °C 1013.1 hPa Calm   4.8 km/h 82% 0 mm 0 W/m2
01:09 22.9 °C 19.7 °C 1013.1 hPa Calm   4.8 km/h 82% 0 mm 0 W/m2
01:14 22.9 °C 19.7 °C 1013.1 hPa Calm   4.8 km/h 82% 0 mm 0 W/m2
01:19 22.9 °C 19.7 °C 1012.8 hPa Calm   4.8 km/h 82% 0 mm 0 W/m2
01:24 22.9 °C 19.7 °C 1012.8 hPa WSW 0.2 km/h 4.8 km/h 82% 0 mm 0 W/m2
01:29 22.9 °C 19.7 °C 1012.8 hPa Calm   4.8 km/h 82% 0 mm 0 W/m2
01:34 22.9 °C 19.7 °C 1013.1 hPa Calm   4.8 km/h 82% 0 mm 0 W/m2
01:39 22.9 °C 19.7 °C 1013.1 hPa Calm   1.6 km/h 82% 0 mm 0 W/m2
01:44 22.9 °C 19.7 °C 1013.1 hPa WSW 0.2 km/h 4.8 km/h 82% 0 mm 0 W/m2
01:49 22.9 °C 19.8 °C 1012.8 hPa WSW 0.2 km/h 4.8 km/h 82.9% 0 mm 0 W/m2
01:54 22.9 °C 19.8 °C 1012.8 hPa WSW 0.2 km/h 4.8 km/h 83% 0 mm 0 W/m2
01:59 22.9 °C 19.8 °C 1012.8 hPa WSW 0.2 km/h 4.8 km/h 83% 0 mm 0 W/m2
02:04 22.9 °C 19.9 °C 1012.8 hPa WSW 0.2 km/h 4.8 km/h 83% 0 mm 0 W/m2
02:09 22.9 °C 19.9 °C 1012.8 hPa Calm   3.2 km/h 83% 0 mm 0 W/m2
02:14 22.9 °C 19.8 °C 1012.8 hPa Calm   3.2 km/h 83% 0 mm 0 W/m2
02:19 22.9 °C 19.8 °C 1012.8 hPa Calm   3.2 km/h 83% 0 mm 0 W/m2
02:24 22.8 °C 19.8 °C 1012.8 hPa Calm   3.2 km/h 83% 0 mm 0 W/m2
02:29 22.8 °C 19.8 °C 1012.8 hPa Calm   3.2 km/h 83% 0 mm 0 W/m2
02:34 22.8 °C 19.7 °C 1012.4 hPa Calm   3.2 km/h 83% 0 mm 0 W/m2
02:39 22.8 °C 19.7 °C 1012.4 hPa Calm   1.6 km/h 83% 0 mm 0 W/m2
02:44 22.7 °C 19.7 °C 1012.4 hPa Calm   1.6 km/h 83% 0 mm 0 W/m2
02:49 22.7 °C 19.6 °C 1012.4 hPa Calm   1.6 km/h 83% 0 mm 0 W/m2
02:54 22.7 °C 19.6 °C 1012.4 hPa Calm   1.6 km/h 83% 0 mm 0 W/m2
02:59 22.6 °C 19.6 °C 1012.4 hPa Calm   1.6 km/h 83.4% 0 mm 0 W/m2
03:04 22.5 °C 19.7 °C 1012.4 hPa Calm   1.6 km/h 84% 0 mm 0 W/m2
03:09 22.4 °C 19.6 °C 1012.4 hPa Calm     84% 0 mm 0 W/m2
03:14 22.4 °C 19.6 °C 1012.8 hPa Calm     84% 0 mm 0 W/m2
03:19 22.3 °C 19.6 °C 1012.8 hPa WSW 1.8 km/h 9.7 km/h 84.5% 0 mm 0 W/m2
03:24 22.3 °C 19.7 °C 1012.8 hPa WSW 0.3 km/h 9.7 km/h 84.9% 0 mm 0 W/m2
03:29 22.3 °C 19.7 °C 1012.8 hPa WSW 1.9 km/h 11.3 km/h 85% 0 mm 0 W/m2
03:34 22.3 °C 19.7 °C 1012.8 hPa WSW 1 km/h 11.3 km/h 85% 0 mm 0 W/m2
03:39 22.3 °C 19.7 °C 1012.4 hPa WSW 1.3 km/h 14.5 km/h 85% 0 mm 0 W/m2
03:44 22.3 °C 19.7 °C 1012.4 hPa WSW 0.6 km/h 14.5 km/h 85% 0 mm 0 W/m2
03:49 22.4 °C 19.7 °C 1012.4 hPa West 1.1 km/h 14.5 km/h 85% 0 mm 0 W/m2
03:54 22.4 °C 19.8 °C 1012.1 hPa WSW 4.2 km/h 19.3 km/h 85% 0 mm 0 W/m2
03:59 22.5 °C 19.8 °C 1012.1 hPa WSW 3.9 km/h 19.3 km/h 85% 0 mm 0 W/m2
04:00 22.6 °C 19.9 °C 1012.1 hPa WNW 1.6 km/h 19.3 km/h 85% 0 mm 0 W/m2
04:09 22.8 °C 19.9 °C 1012.1 hPa West 6.1 km/h 20.9 km/h 84% 0 mm 0 W/m2
04:14 22.9 °C 19.9 °C 1012.1 hPa WSW 4.7 km/h 20.9 km/h 83.2% 0 mm 0 W/m2
04:19 23 °C 19.9 °C 1012.1 hPa SW 4.2 km/h 20.9 km/h 83% 0 mm 0 W/m2
04:24 23.1 °C 20 °C 1012.1 hPa West 5.1 km/h 20.9 km/h 82.9% 0 mm 0 W/m2
04:29 23.1 °C 19.8 °C 1012.1 hPa WSW 5.3 km/h 20.9 km/h 82% 0 mm 0 W/m2
04:34 23.1 °C 19.9 °C 1012.1 hPa WSW 7.7 km/h 22.5 km/h 82% 0 mm 0 W/m2
04:39 23.1 °C 19.9 °C 1012.1 hPa WSW 3.4 km/h 22.5 km/h 82% 0 mm 0 W/m2
04:44 23.2 °C 19.9 °C 1011.7 hPa WSW 3.2 km/h 22.5 km/h 82% 0 mm 0 W/m2
04:49 23.1 °C 19.9 °C 1011.1 hPa West 0.5 km/h 22.5 km/h 82% 0 mm 0 W/m2
04:54 23.1 °C 19.9 °C 1011.7 hPa West 0.8 km/h 22.5 km/h 82% 0 mm 0 W/m2
04:59 23.1 °C 19.8 °C 1011.7 hPa WSW 2.3 km/h 22.5 km/h 82% 0 mm 0 W/m2
05:04 23.1 °C 19.8 °C 1011.7 hPa WSW 4 km/h 22.5 km/h 82% 0 mm 0 W/m2
05:09 23 °C 19.8 °C 1011.4 hPa WSW 3.1 km/h 16.1 km/h 82% 0 mm 0 W/m2
05:14 23 °C 19.8 °C 1011.4 hPa WSW 2.6 km/h 16.1 km/h 82% 0 mm 0 W/m2
05:19 23 °C 19.8 °C 1011.4 hPa West 1.6 km/h 16.1 km/h 82.3% 0 mm 0 W/m2
05:24 22.9 °C 19.9 °C 1011.7 hPa West 2.1 km/h 16.1 km/h 83% 0 mm 0 W/m2
05:29 22.9 °C 19.8 °C 1011.7 hPa WSW 0.6 km/h 16.1 km/h 83% 0 mm 0 W/m2
05:34 22.8 °C 19.8 °C 1011.7 hPa WSW 0.6 km/h 16.1 km/h 83% 0 mm 0 W/m2
05:39 22.8 °C 19.8 °C 1011.7 hPa WSW 0.5 km/h 6.4 km/h 83% 0 mm 0 W/m2
05:44 22.7 °C 19.7 °C 1011.7 hPa WSW 0.5 km/h 6.4 km/h 83% 0 mm 0 W/m2
05:49 22.7 °C 19.7 °C 1011.4 hPa WSW 0.2 km/h 6.4 km/h 83% 0 mm 0 W/m2
05:54 22.7 °C 19.7 °C 1011.4 hPa Calm   6.4 km/h 83.5% 0 mm 0 W/m2
05:59 22.6 °C 19.8 °C 1011.1 hPa Calm   6.4 km/h 84% 0 mm 0 W/m2
06:04 22.6 °C 19.7 °C 1011.4 hPa Calm   6.4 km/h 84% 0 mm 0 W/m2
06:09 22.5 °C 19.7 °C 1011.7 hPa Calm     84% 0 mm 0 W/m2
06:14 22.4 °C 19.7 °C 1012.1 hPa West 1 km/h 8 km/h 84.4% 0 mm 0 W/m2
06:19 22.3 °C 19.7 °C 1012.1 hPa West 1 km/h 9.7 km/h 85% 0 mm 0 W/m2
06:24 22.3 °C 19.7 °C 1012.4 hPa West 1.8 km/h 9.7 km/h 85% 0 mm 0 W/m2
06:29 22.3 °C 19.7 °C 1012.4 hPa West 3.5 km/h 11.3 km/h 85% 0 mm 0 W/m2
06:34 22.3 °C 19.7 °C 1012.4 hPa WSW 4 km/h 14.5 km/h 85% 0 mm 0 W/m2
06:39 22.3 °C 19.6 °C 1012.8 hPa West 3.9 km/h 14.5 km/h 85% 0 mm 0 W/m2
06:44 22.3 °C 19.7 °C 1012.8 hPa WSW 3.9 km/h 14.5 km/h 85% 0 mm 0 W/m2
06:48 22.3 °C 19.7 °C 1012.8 hPa WSW 3.5 km/h 16.1 km/h 85% 0 mm 5 W/m2
06:54 22.3 °C 19.7 °C 1013.1 hPa West 1.1 km/h 16.1 km/h 85% 0 mm 12 W/m2
06:59 22.3 °C 19.7 °C 1013.1 hPa West 1.4 km/h 16.1 km/h 85% 0 mm 19 W/m2
07:04 22.4 °C 19.7 °C 1013.1 hPa West 1.3 km/h 16.1 km/h 85% 0 mm 26 W/m2
07:09 22.4 °C 19.8 °C 1013.1 hPa Calm   8 km/h 85.2% 0 mm 28 W/m2
07:14 22.4 °C 19.9 °C 1013.1 hPa Calm   8 km/h 85.3% 0 mm 26 W/m2
07:19 22.5 °C 19.8 °C 1013.4 hPa Calm   8 km/h 85% 0 mm 30 W/m2
07:24 22.5 °C 19.9 °C 1013.4 hPa WNW 1.8 km/h 9.7 km/h 85% 0 mm 37 W/m2
07:29 22.6 °C 19.9 °C 1013.4 hPa WNW 2.3 km/h 11.3 km/h 85% 0 mm 42 W/m2
07:34 22.7 °C 20 °C 1013.4 hPa West 3.7 km/h 14.5 km/h 84.9% 0 mm 47 W/m2
07:39 22.8 °C 19.9 °C 1013.8 hPa WNW 4.5 km/h 16.1 km/h 84% 0 mm 47 W/m2
07:44 22.9 °C 20.1 °C 1014.1 hPa WNW 2.4 km/h 16.1 km/h 84% 0 mm 47 W/m2
07:49 22.9 °C 20.1 °C 1014.1 hPa WNW 7.7 km/h 20.9 km/h 83.9% 0 mm 44 W/m2
07:54 22.9 °C 19.9 °C 1014.1 hPa NW 7.1 km/h 20.9 km/h 82.9% 0 mm 49 W/m2
07:59 22.9 °C 19.6 °C 1014.1 hPa NW 7.2 km/h 20.9 km/h 81.4% 0 mm 70 W/m2
08:00 22.9 °C 19.4 °C 1014.1 hPa NNW 11.3 km/h 20.9 km/h 81% 0 mm 70 W/m2
08:09 22.8 °C 18.9 °C 1014.1 hPa NW 7.1 km/h 27.4 km/h 78.6% 0 mm 98 W/m2
08:14 22.8 °C 18.9 °C 1014.1 hPa NW 4.7 km/h 27.4 km/h 78.7% 0 mm 113 W/m2
08:19 22.8 °C 18.7 °C 1013.8 hPa NW 4.2 km/h 27.4 km/h 78% 0 mm 118 W/m2
08:24 22.8 °C 18.2 °C 1013.8 hPa WNW 9.7 km/h 27.4 km/h 75.2% 0 mm 125 W/m2
08:29 22.8 °C 17.2 °C 1013.8 hPa WNW 7.2 km/h 27.4 km/h 70.7% 0 mm 125 W/m2
08:34 22.8 °C 16.4 °C 1013.8 hPa NW 6.6 km/h 27.4 km/h 67.3% 0 mm 174 W/m2
08:39 22.8 °C 16.2 °C 1014.1 hPa NW 3.2 km/h 17.7 km/h 66.5% 0 mm 258 W/m2
08:44 22.9 °C 16.4 °C 1013.8 hPa WNW 5.6 km/h 17.7 km/h 67% 0 mm 232 W/m2
08:49 23 °C 16.3 °C 1013.8 hPa WNW 7.2 km/h 19.3 km/h 66.1% 0 mm 227 W/m2
08:54 23.1 °C 16.2 °C 1014.1 hPa NW 2.4 km/h 19.3 km/h 65.4% 0 mm 279 W/m2
08:59 23.2 °C 16.3 °C 1014.1 hPa NW 1.8 km/h 19.3 km/h 65.3% 0 mm 343 W/m2
09:04 23.4 °C 16.3 °C 1014.1 hPa Calm   19.3 km/h 64.4% 0 mm 438 W/m2
09:09 23.7 °C 16.3 °C 1014.4 hPa NW 1.3 km/h 6.4 km/h 63.1% 0 mm 408 W/m2
09:14 24.1 °C 16.7 °C 1014.4 hPa Calm   6.4 km/h 63.5% 0 mm 392 W/m2
09:19 24.3 °C 16.9 °C 1014.8 hPa NW 1.4 km/h 8 km/h 63.2% 0 mm 392 W/m2
09:24 24.6 °C 15.8 °C 1014.4 hPa NNW 0.3 km/h 9.7 km/h 58.1% 0 mm 483 W/m2
09:29 24.8 °C 16.5 °C 1014.8 hPa Calm   9.7 km/h 59.9% 0 mm 483 W/m2
09:34 25.1 °C 16.3 °C 1014.8 hPa North 1 km/h 9.7 km/h 58.2% 0 mm 527 W/m2
09:39 25.4 °C 15.7 °C 1014.8 hPa Calm   4.8 km/h 54.8% 0 mm 548 W/m2
09:44 25.7 °C 15.9 °C 1014.8 hPa Calm   4.8 km/h 54.8% 0 mm 554 W/m2
09:49 26 °C 16 °C 1014.8 hPa NE 0.2 km/h 4.8 km/h 54.1% 0 mm 503 W/m2
09:54 26.3 °C 16.1 °C 1014.8 hPa NE 1.3 km/h 9.7 km/h 53.6% 0 mm 524 W/m2
09:59 26.4 °C 15.7 °C 1014.8 hPa West 1.9 km/h 16.1 km/h 51.8% 0 mm 496 W/m2
10:04 26.4 °C 15.4 °C 1015.1 hPa WNW 1.1 km/h 16.1 km/h 50.8% 0 mm 462 W/m2
10:09 26.5 °C 15.9 °C 1015.1 hPa NW 0.3 km/h 6.4 km/h 52.4% 0 mm 508 W/m2
10:14 26.6 °C 15.8 °C 1015.1 hPa NNW 1.8 km/h 9.7 km/h 51.4% 0 mm 555 W/m2
10:19 26.7 °C 15.2 °C 1015.1 hPa NNW 4.2 km/h 16.1 km/h 49.5% 0 mm 636 W/m2
10:24 26.6 °C 15.2 °C 1015.1 hPa WNW 2.6 km/h 17.7 km/h 49.8% 0 mm 608 W/m2
10:29 26.5 °C 15.5 °C 1015.1 hPa NW 3.1 km/h 17.7 km/h 50.9% 0 mm 649 W/m2
10:34 26.5 °C 15.5 °C 1015.1 hPa WNW 3.4 km/h 17.7 km/h 50.9% 0 mm 666 W/m2
10:39 26.6 °C 15.4 °C 1015.1 hPa WNW 3.4 km/h 12.9 km/h 50.3% 0 mm 671 W/m2
10:44 26.7 °C 15.8 °C 1015.5 hPa NW 2.6 km/h 12.9 km/h 51.4% 0 mm 671 W/m2
10:49 26.9 °C 16 °C 1015.5 hPa NNW 5 km/h 16.1 km/h 51.4% 0 mm 684 W/m2
10:54 26.9 °C 15.8 °C 1015.5 hPa NW 3.5 km/h 16.1 km/h 50.5% 0 mm 693 W/m2
10:59 27.1 °C 15.7 °C 1015.5 hPa WNW 6.6 km/h 20.9 km/h 50% 0 mm 703 W/m2
11:04 27 °C 15.6 °C 1015.5 hPa NW 9.2 km/h 22.5 km/h 49.7% 0 mm 712 W/m2
11:09 26.8 °C 15.4 °C 1015.5 hPa WNW 7.2 km/h 22.5 km/h 49.7% 0 mm 721 W/m2
11:14 26.7 °C 15.8 °C 1015.1 hPa NW 5.6 km/h 22.5 km/h 51.3% 0 mm 724 W/m2
11:19 26.7 °C 15.6 °C 1015.5 hPa NW 5.5 km/h 22.5 km/h 50.4% 0 mm 738 W/m2
11:24 26.8 °C 15.8 °C 1015.5 hPa WNW 8 km/h 22.5 km/h 51.2% 0 mm 745 W/m2
11:29 26.9 °C 16.1 °C 1015.5 hPa WNW 5.6 km/h 22.5 km/h 51.7% 0 mm 754 W/m2
11:34 26.9 °C 15.7 °C 1015.1 hPa NW 6.6 km/h 22.5 km/h 50.3% 0 mm 756 W/m2
11:39 26.9 °C 16.3 °C 1015.1 hPa West 3.5 km/h 17.7 km/h 52.4% 0 mm 429 W/m2
11:44 27 °C 16.4 °C 1015.1 hPa West 3.5 km/h 17.7 km/h 52.4% 0 mm 438 W/m2
11:49 27 °C 16.2 °C 1015.1 hPa West 4 km/h 19.3 km/h 51.7% 0 mm 438 W/m2
11:54 26.8 °C 16.1 °C 1015.1 hPa WNW 3.9 km/h 19.3 km/h 51.7% 0 mm 146 W/m2
11:59 26.7 °C 15.8 °C 1015.1 hPa WNW 1.8 km/h 19.3 km/h 51.1% 0 mm 84 W/m2
12:00 26.7 °C 16.7 °C 1015.1 hPa Calm   19.3 km/h 54% 0 mm 69 W/m2
12:09 26.7 °C 16.3 °C 1014.8 hPa WNW 2.4 km/h 11.3 km/h 53% 0 mm 69 W/m2
12:14 26.6 °C 15.9 °C 1014.8 hPa NW 5.6 km/h 20.9 km/h 51.9% 0 mm 93 W/m2
12:19 26.4 °C 15.1 °C 1014.4 hPa WNW 11.3 km/h 24.1 km/h 49.8% 0 mm 93 W/m2
12:24 26.2 °C 14.9 °C 1014.4 hPa West 5.8 km/h 24.1 km/h 49.7% 0 mm 83 W/m2
12:29 26.2 °C 15 °C 1014.4 hPa WNW 5.1 km/h 24.1 km/h 50.2% 0 mm 162 W/m2
12:34 26.2 °C 14.9 °C 1014.4 hPa WNW 6 km/h 24.1 km/h 50.1% 0 mm 84 W/m2
12:39 26.2 °C 15.1 °C 1014.4 hPa West 2.7 km/h 22.5 km/h 50.4% 0 mm 163 W/m2
12:44 26.3 °C 15.3 °C 1014.4 hPa NW 4.8 km/h 22.5 km/h 50.7% 0 mm 156 W/m2
12:49 26.4 °C 14.8 °C 1014.4 hPa WNW 4.2 km/h 22.5 km/h 48.9% 0 mm 83 W/m2
12:54 26.5 °C 15 °C 1014.4 hPa NW 5.3 km/h 22.5 km/h 49.2% 0 mm 167 W/m2
12:59 26.6 °C 15.2 °C 1014.4 hPa NNW 2.3 km/h 22.5 km/h 49.8% 0 mm 167 W/m2
13:04 26.6 °C 15.3 °C 1014.4 hPa NW 5.3 km/h 22.5 km/h 49.7% 0 mm 121 W/m2
13:09 26.7 °C 15.8 °C 1014.4 hPa WNW 0.6 km/h 14.5 km/h 51.1% 0 mm 144 W/m2
13:14 26.8 °C 16.2 °C 1014.4 hPa WNW 2.6 km/h 14.5 km/h 52.3% 0 mm 114 W/m2
13:19 26.9 °C 16.1 °C 1014.4 hPa WNW 3.5 km/h 14.5 km/h 51.6% 0 mm 98 W/m2
13:24 26.9 °C 15.9 °C 1014.4 hPa West 2.7 km/h 16.1 km/h 51.1% 0 mm 67 W/m2
13:29 26.9 °C 16.1 °C 1014.4 hPa West 5.8 km/h 16.1 km/h 51.3% 0 mm 144 W/m2
13:34 26.9 °C 15.6 °C 1014.4 hPa West 5.5 km/h 17.7 km/h 49.7% 0 mm 171 W/m2
13:39 26.9 °C 14.9 °C 1014.4 hPa NW 7.1 km/h 20.9 km/h 47.8% 0 mm 81 W/m2
13:44 26.8 °C 13.8 °C 1014.4 hPa WNW 8.4 km/h 24.1 km/h 44.7% 0 mm 54 W/m2
13:49 26.7 °C 13.9 °C 1014.4 hPa NNW 6.6 km/h 24.1 km/h 45.3% 0 mm 53 W/m2
13:54 26.6 °C 14 °C 1014.4 hPa NW 6.1 km/h 24.1 km/h 45.8% 0 mm 54 W/m2
13:59 26.6 °C 13.9 °C 1014.4 hPa NW 4.2 km/h 24.1 km/h 45.9% 0 mm 58 W/m2
14:04 26.5 °C 14.3 °C 1014.4 hPa NW 2.4 km/h 24.1 km/h 47% 0 mm 62 W/m2
14:09 26.6 °C 14.3 °C 1014.4 hPa WNW 6.1 km/h 20.9 km/h 46.8% 0 mm 62 W/m2
14:14 26.6 °C 14.2 °C 1014.4 hPa NW 4.7 km/h 20.9 km/h 46.4% 0 mm 128 W/m2
14:19 26.7 °C 14.7 °C 1014.4 hPa WNW 3.2 km/h 20.9 km/h 47.5% 0 mm 230 W/m2
14:24 26.9 °C 14.1 °C 1014.4 hPa WNW 5.8 km/h 24.1 km/h 45.5% 0 mm 761 W/m2
14:29 27.2 °C 14.4 °C 1014.4 hPa NW 8 km/h 25.7 km/h 45.5% 0 mm 758 W/m2
14:34 27.2 °C 13.7 °C 1014.4 hPa NW 8.9 km/h 27.4 km/h 43.3% 0 mm 744 W/m2
14:39 27.1 °C 14.2 °C 1014.4 hPa WNW 3.9 km/h 27.4 km/h 45.2% 0 mm 742 W/m2
14:44 27.1 °C 13.9 °C 1014.4 hPa WNW 6.9 km/h 27.4 km/h 44.3% 0 mm 742 W/m2
14:49 27.2 °C 14.4 °C 1014.1 hPa WNW 5.8 km/h 27.4 km/h 45.8% 0 mm 740 W/m2
14:54 27.2 °C 14.5 °C 1014.1 hPa NW 4.8 km/h 27.4 km/h 45.6% 0 mm 615 W/m2
14:59 27.2 °C 14.8 °C 1014.1 hPa NW 3.5 km/h 27.4 km/h 46.6% 0 mm 691 W/m2
15:04 27.3 °C 15.1 °C 1014.1 hPa WNW 5.3 km/h 27.4 km/h 47.2% 0 mm 691 W/m2
15:09 27.3 °C 15.4 °C 1013.8 hPa NW 2.6 km/h 20.9 km/h 48.3% 0 mm 677 W/m2
15:14 27.4 °C 14.8 °C 1014.1 hPa WNW 7.4 km/h 20.9 km/h 46.1% 0 mm 652 W/m2
15:19 27.4 °C 14.4 °C 1014.1 hPa WNW 7.6 km/h 22.5 km/h 45% 0 mm 647 W/m2
15:24 27.4 °C 14.4 °C 1014.1 hPa NW 4.8 km/h 22.5 km/h 44.9% 0 mm 629 W/m2
15:29 27.5 °C 15.1 °C 1014.1 hPa NW 3.7 km/h 22.5 km/h 46.5% 0 mm 619 W/m2
15:34 27.7 °C 15.1 °C 1014.1 hPa NW 2.7 km/h 22.5 km/h 46.3% 0 mm 601 W/m2
15:39 27.8 °C 15.4 °C 1014.1 hPa WNW 4.5 km/h 11.3 km/h 46.7% 0 mm 584 W/m2
15:44 27.9 °C 15.4 °C 1013.8 hPa WNW 4.2 km/h 12.9 km/h 46.6% 0 mm 568 W/m2
15:48 27.9 °C 15.6 °C 1013.8 hPa WNW 4.8 km/h 14.5 km/h 47.2% 0 mm 550 W/m2
15:54 27.7 °C 15.7 °C 1013.8 hPa WNW 2.3 km/h 14.5 km/h 48.1% 0 mm 538 W/m2
15:59 27.6 °C 15.6 °C 1013.4 hPa WNW 1.9 km/h 14.5 km/h 48.2% 0 mm 466 W/m2
16:09 27.1 °C 15.1 °C 1013.8 hPa NNW 1.1 km/h 6.4 km/h 48% 0 mm 54 W/m2
16:14 27 °C 15.4 °C 1013.8 hPa NW 3.1 km/h 9.7 km/h 49.1% 0 mm 54 W/m2
16:19 26.9 °C 15.3 °C 1013.8 hPa West 2.6 km/h 17.7 km/h 49.1% 0 mm 53 W/m2
16:24 26.9 °C 15.3 °C 1013.8 hPa WNW 2.1 km/h 17.7 km/h 49% 0 mm 53 W/m2
16:29 26.8 °C 15.4 °C 1014.1 hPa WNW 0.3 km/h 17.7 km/h 49.8% 0 mm 72 W/m2
16:34 26.7 °C 15.5 °C 1014.1 hPa WNW 2.1 km/h 17.7 km/h 50.4% 0 mm 81 W/m2
16:39 26.6 °C 15.3 °C 1014.1 hPa WNW 0.2 km/h 8 km/h 50.1% 0 mm 107 W/m2
16:44 26.5 °C 15.6 °C 1014.1 hPa WNW 2.3 km/h 8 km/h 51.1% 0 mm 118 W/m2
16:49 26.5 °C 15.9 °C 1014.1 hPa North 1.3 km/h 8 km/h 52.3% 0 mm 116 W/m2
16:54 26.5 °C 15.8 °C 1014.1 hPa NNW 1 km/h 8 km/h 51.8% 0 mm 102 W/m2
16:59 26.6 °C 15.8 °C 1014.1 hPa NNW 1.6 km/h 8 km/h 51.7% 0 mm 54 W/m2
17:04 26.6 °C 15.6 °C 1014.1 hPa NW 2.6 km/h 11.3 km/h 51.1% 0 mm 53 W/m2
17:09 26.6 °C 15.7 °C 1014.1 hPa WNW 0.6 km/h 11.3 km/h 51.4% 0 mm 49 W/m2
17:14 26.5 °C 15.5 °C 1014.1 hPa WNW 0.6 km/h 11.3 km/h 50.9% 0 mm 47 W/m2
17:19 26.4 °C 15.8 °C 1014.4 hPa WSW 0.8 km/h 11.3 km/h 52% 0 mm 63 W/m2
17:24 26.3 °C 15.8 °C 1014.1 hPa Calm   11.3 km/h 52.3% 0 mm 62 W/m2
17:29 26.3 °C 16 °C 1014.1 hPa West 0.2 km/h 11.3 km/h 53.2% 0 mm 67 W/m2
17:34 26.2 °C 15.9 °C 1014.1 hPa Calm   11.3 km/h 53.1% 0 mm 62 W/m2
17:39 26.1 °C 15.7 °C 1014.4 hPa Calm     52.8% 0 mm 70 W/m2
17:44 26.1 °C 15.8 °C 1014.4 hPa West 0.2 km/h 4.8 km/h 53.2% 0 mm 70 W/m2
17:49 26.1 °C 15.8 °C 1014.4 hPa NW 0.8 km/h 4.8 km/h 53.4% 0 mm 60 W/m2
17:54 26.1 °C 15.4 °C 1014.4 hPa NW 0.6 km/h 8 km/h 52.1% 0 mm 60 W/m2
17:59 26.1 °C 15.5 °C 1014.4 hPa NW 0.5 km/h 8 km/h 52.2% 0 mm 58 W/m2
18:04 26.1 °C 15.3 °C 1014.4 hPa NW 1.9 km/h 9.7 km/h 51.6% 0 mm 30 W/m2
18:09 25.9 °C 15.4 °C 1014.4 hPa Calm   9.7 km/h 52.2% 0 mm 23 W/m2
18:14 25.9 °C 15.6 °C 1014.4 hPa NW 0.3 km/h 9.7 km/h 52.8% 0 mm 21 W/m2
18:19 25.8 °C 15.2 °C 1014.4 hPa NW 0.2 km/h 9.7 km/h 52% 0 mm 19 W/m2
18:24 25.7 °C 15.4 °C 1014.8 hPa Calm   9.7 km/h 52.9% 0 mm 16 W/m2
18:29 25.6 °C 15.4 °C 1014.8 hPa NW 0.2 km/h 9.7 km/h 53.3% 0 mm 14 W/m2
18:34 25.5 °C 15.2 °C 1014.8 hPa NW 1.1 km/h 9.7 km/h 53% 0 mm 11 W/m2
18:39 25.3 °C 15.3 °C 1014.8 hPa Calm   4.8 km/h 54% 0 mm 9 W/m2
18:44 25.2 °C 15.4 °C 1014.8 hPa Calm   4.8 km/h 54.6% 0 mm 7 W/m2
18:49 25.1 °C 15.6 °C 1015.1 hPa Calm   4.8 km/h 55.7% 0 mm 5 W/m2
18:54 24.9 °C 15.8 °C 1015.1 hPa Calm   4.8 km/h 56.7% 0 mm 0 W/m2
18:59 24.8 °C 15.7 °C 1015.1 hPa Calm   4.8 km/h 57% 0 mm 0 W/m2
19:04 24.7 °C 15.8 °C 1015.1 hPa Calm   4.8 km/h 57.7% 0 mm 0 W/m2
19:09 24.6 °C 15.9 °C 1015.1 hPa Calm     58.7% 0 mm 0 W/m2
19:14 24.4 °C 16.1 °C 1015.1 hPa Calm     59.8% 0 mm 0 W/m2
19:19 24.2 °C 16.1 °C 1015.1 hPa Calm   1.6 km/h 60.4% 0 mm 0 W/m2
19:24 24 °C 16.1 °C 1015.1 hPa Calm   1.6 km/h 61.2% 0 mm 0 W/m2
19:29 23.8 °C 16.1 °C 1015.1 hPa Calm   1.6 km/h 61.9% 0 mm 0 W/m2
19:34 23.7 °C 15.9 °C 1015.5 hPa Calm   1.6 km/h 62% 0 mm 0 W/m2
19:39 23.5 °C 15.9 °C 1015.5 hPa Calm     62.6% 0 mm 0 W/m2
19:44 23.3 °C 16.1 °C 1015.5 hPa Calm     63.8% 0 mm 0 W/m2
19:49 23.2 °C 16 °C 1015.5 hPa Calm     64% 0 mm 0 W/m2
19:54 23 °C 15.8 °C 1015.5 hPa Calm     64% 0 mm 0 W/m2
19:59 22.8 °C 15.9 °C 1015.5 hPa Calm     64.9% 0 mm 0 W/m2
20:00 22.8 °C 15.9 °C 1015.5 hPa Calm     65% 0 mm 0 W/m2
20:09 22.6 °C 15.9 °C 1015.8 hPa Calm     66% 0 mm 0 W/m2
20:14 22.4 °C 15.9 °C 1015.8 hPa Calm     66.6% 0 mm 0 W/m2
20:19 22.3 °C 16.1 °C 1015.8 hPa Calm     67.9% 0 mm 0 W/m2
20:24 22.2 °C 16.2 °C 1015.8 hPa Calm     69% 0 mm 0 W/m2
20:29 22 °C 16.2 °C 1016.1 hPa Calm     69.9% 0 mm 0 W/m2
20:34 21.8 °C 16.3 °C 1016.1 hPa Calm     70.7% 0 mm 0 W/m2
20:39 21.6 °C 16.3 °C 1016.1 hPa Calm     71.5% 0 mm 0 W/m2
20:44 21.4 °C 16.3 °C 1016.1 hPa Calm     72.8% 0 mm 0 W/m2
20:49 21.2 °C 16.2 °C 1016.1 hPa Calm     73.1% 0 mm 0 W/m2
20:54 20.9 °C 16.2 °C 1016.1 hPa Calm     74% 0 mm 0 W/m2
20:59 20.8 °C 16 °C 1016.1 hPa Calm     74% 0 mm 0 W/m2
21:04 20.7 °C 15.8 °C 1016.1 hPa Calm     73.8% 0 mm 0 W/m2
21:09 20.6 °C 15.8 °C 1016.1 hPa Calm     74% 0 mm 0 W/m2
21:14 20.5 °C 15.9 °C 1016.5 hPa Calm     74.8% 0 mm 0 W/m2
21:19 20.4 °C 16.1 °C 1016.5 hPa Calm     76.1% 0 mm 0 W/m2
21:24 20.3 °C 16.2 °C 1016.5 hPa Calm     77.3% 0 mm 0 W/m2
21:29 20.1 °C 16 °C 1016.5 hPa Calm     77.2% 0 mm 0 W/m2
21:34 19.9 °C 15.8 °C 1016.5 hPa Calm     77% 0 mm 0 W/m2
21:39 19.8 °C 15.7 °C 1016.5 hPa Calm     77% 0 mm 0 W/m2
21:44 19.7 °C 15.6 °C 1016.5 hPa Calm     77% 0 mm 0 W/m2
21:49 19.7 °C 15.5 °C 1016.5 hPa Calm     77% 0 mm 0 W/m2
21:54 19.6 °C 15.4 °C 1016.8 hPa Calm     77% 0 mm 0 W/m2
21:59 19.6 °C 15.5 °C 1016.8 hPa Calm     77.5% 0 mm 0 W/m2
22:04 19.5 °C 15.6 °C 1016.8 hPa Calm     78% 0 mm 0 W/m2
22:09 19.4 °C 15.5 °C 1016.8 hPa Calm     78% 0 mm 0 W/m2
22:14 19.3 °C 15.4 °C 1016.8 hPa Calm     78% 0 mm 0 W/m2
22:19 19.3 °C 15.3 °C 1016.8 hPa NW 0.2 km/h 3.2 km/h 78% 0 mm 0 W/m2
22:24 19.2 °C 15.5 °C 1016.8 hPa Calm   3.2 km/h 79% 0 mm 0 W/m2
22:29 19.2 °C 15.4 °C 1016.8 hPa Calm   3.2 km/h 79% 0 mm 0 W/m2
22:34 19.2 °C 15.4 °C 1016.8 hPa Calm   3.2 km/h 79% 0 mm 0 W/m2
22:39 19.1 °C 15.5 °C 1016.5 hPa Calm     79.4% 0 mm 0 W/m2
22:44 19.1 °C 15.6 °C 1016.1 hPa Calm   3.2 km/h 80% 0 mm 0 W/m2
22:49 19.1 °C 15.6 °C 1015.5 hPa Calm   3.2 km/h 79.9% 0 mm 0 W/m2
22:54 19.1 °C 15.4 °C 1014.8 hPa NNW 0.8 km/h 4.8 km/h 79% 0 mm 0 W/m2
22:59 19.2 °C 15.1 °C 1014.4 hPa NE 0.3 km/h 6.4 km/h 77.5% 0 mm 0 W/m2
23:04 19.2 °C 15.1 °C 1014.8 hPa Calm   6.4 km/h 77% 0 mm 0 W/m2
23:09 19.3 °C 15.4 °C 1015.1 hPa Calm   1.6 km/h 78.1% 0 mm 0 W/m2
23:14 19.3 °C 15.6 °C 1015.1 hPa Calm   1.6 km/h 79% 0 mm 0 W/m2
23:19 19.3 °C 15.6 °C 1015.5 hPa Calm   1.6 km/h 79% 0 mm 0 W/m2
23:24 19.3 °C 15.6 °C 1015.5 hPa Calm   1.6 km/h 79% 0 mm 0 W/m2
23:29 19.3 °C 15.8 °C 1015.5 hPa Calm   1.6 km/h 79.9% 0 mm 0 W/m2
23:34 19.3 °C 15.7 °C 1015.5 hPa Calm   1.6 km/h 79.5% 0 mm 0 W/m2
23:39 19.3 °C 15.5 °C 1015.5 hPa Calm     78.8% 0 mm 0 W/m2
23:44 19.3 °C 15.6 °C 1015.1 hPa Calm     79% 0 mm 0 W/m2
23:49 19.2 °C 15.5 °C 1015.5 hPa Calm     79% 0 mm 0 W/m2
23:54 19.2 °C 15.5 °C 1015.5 hPa Calm     79% 0 mm 0 W/m2
23:59 19.2 °C 15.5 °C 1015.1 hPa Calm     79% 0 mm 0 W/m2
Hartford County Weather
Compliments of Weather Underground - 2 mb